createdAt,value
2019-05-15T00:00:55.711Z,0.00
2019-05-15T00:01:58.454Z,0.00
2019-05-15T00:02:55.543Z,0.00
2019-05-15T00:03:55.452Z,0.00
2019-05-15T00:04:55.421Z,0.00
2019-05-15T00:05:55.276Z,0.00
2019-05-15T00:06:55.212Z,0.00
2019-05-15T00:07:55.130Z,0.00
2019-05-15T00:08:55.028Z,0.00
2019-05-15T00:09:55.042Z,0.00
2019-05-15T00:10:54.859Z,0.00
2019-05-15T00:11:54.886Z,0.00
2019-05-15T00:12:54.688Z,0.00
2019-05-15T00:13:54.604Z,0.00
2019-05-15T00:14:54.537Z,0.00
2019-05-15T00:15:54.466Z,0.00
2019-05-15T00:16:54.357Z,0.00
2019-05-15T00:17:54.381Z,0.00
2019-05-15T00:18:54.188Z,0.00
2019-05-15T00:19:54.100Z,0.00
2019-05-15T00:20:54.096Z,0.00
2019-05-15T00:21:53.955Z,0.00
2019-05-15T00:22:53.904Z,0.00
2019-05-15T00:23:53.760Z,0.00
2019-05-15T00:25:00.678Z,0.00
2019-05-15T00:25:53.586Z,0.00
2019-05-15T00:26:53.527Z,0.00
2019-05-15T00:27:53.433Z,0.00
2019-05-15T00:28:53.433Z,0.00
2019-05-15T00:29:53.252Z,0.00
2019-05-15T00:30:55.190Z,0.00
2019-05-15T00:31:53.077Z,0.00
2019-05-15T00:32:53.083Z,0.00
2019-05-15T00:33:52.928Z,0.00
2019-05-15T00:34:52.827Z,0.00
2019-05-15T00:35:52.766Z,0.00
2019-05-15T00:36:52.655Z,0.00
2019-05-15T00:37:52.585Z,0.00
2019-05-15T00:38:52.582Z,0.00
2019-05-15T00:39:52.412Z,0.00
2019-05-15T00:40:52.328Z,0.00
2019-05-15T00:41:54.857Z,0.00
2019-05-15T00:42:52.163Z,0.00
2019-05-15T00:43:52.070Z,0.00
2019-05-15T00:44:52.009Z,0.00
2019-05-15T00:45:51.902Z,0.00
2019-05-15T00:46:51.924Z,0.00
2019-05-15T00:47:51.749Z,0.00
2019-05-15T00:48:52.755Z,0.00
2019-05-15T00:49:51.559Z,0.00
2019-05-15T00:50:51.538Z,0.00
2019-05-15T00:51:51.382Z,0.00
2019-05-15T00:52:51.380Z,0.00
2019-05-15T00:53:51.222Z,0.00
2019-05-15T00:54:51.134Z,0.00
2019-05-15T00:55:51.163Z,0.00
2019-05-15T00:56:50.964Z,0.00
2019-05-15T00:57:50.897Z,0.00
2019-05-15T00:58:50.879Z,0.00
2019-05-15T00:59:50.707Z,0.00
2019-05-15T01:00:50.626Z,0.00
2019-05-15T01:01:50.540Z,0.00
2019-05-15T01:02:50.534Z,0.00
2019-05-15T01:03:50.370Z,0.00
2019-05-15T01:04:50.289Z,0.00
2019-05-15T01:05:50.200Z,0.00
2019-05-15T01:06:52.744Z,0.00
2019-05-15T01:07:50.042Z,0.00
2019-05-15T01:08:49.952Z,0.00
2019-05-15T01:09:49.929Z,0.00
2019-05-15T01:10:49.785Z,0.00
2019-05-15T01:11:49.691Z,0.00
2019-05-15T01:12:49.679Z,0.00
2019-05-15T01:13:49.521Z,0.00
2019-05-15T01:14:49.441Z,0.00
2019-05-15T01:15:49.458Z,0.00
2019-05-15T01:16:49.274Z,0.00
2019-05-15T01:17:50.224Z,0.00
2019-05-15T01:18:49.270Z,0.00
2019-05-15T01:19:49.077Z,0.00
2019-05-15T01:20:49.445Z,0.00
2019-05-15T01:21:48.888Z,0.00
2019-05-15T01:22:48.772Z,0.00
2019-05-15T01:23:48.676Z,0.00
2019-05-15T01:24:48.724Z,0.00
2019-05-15T01:25:48.510Z,0.00
2019-05-15T01:26:49.254Z,0.00
2019-05-15T01:27:48.972Z,0.00
2019-05-15T01:28:49.494Z,0.00
2019-05-15T01:29:49.388Z,0.00
2019-05-15T01:30:48.589Z,0.00
2019-05-15T01:31:48.821Z,0.00
2019-05-15T01:32:48.535Z,0.00
2019-05-15T01:33:48.154Z,0.00
2019-05-15T01:34:49.073Z,0.00
2019-05-15T01:35:48.923Z,0.00
2019-05-15T01:36:48.876Z,0.00
2019-05-15T01:37:48.325Z,0.00
2019-05-15T01:38:48.038Z,0.00
2019-05-15T01:39:48.531Z,0.00
2019-05-15T01:40:48.494Z,0.00
2019-05-15T01:41:49.361Z,0.00
2019-05-15T01:42:47.081Z,0.00
2019-05-15T01:43:48.965Z,0.00
2019-05-15T01:44:48.466Z,0.00
2019-05-15T01:45:48.363Z,0.00
2019-05-15T01:46:48.426Z,0.00
2019-05-15T01:47:47.988Z,0.00
2019-05-15T01:48:49.119Z,0.00
2019-05-15T01:49:48.865Z,0.00
2019-05-15T01:50:46.403Z,0.00
2019-05-15T01:51:47.941Z,0.00
2019-05-15T01:52:47.949Z,0.00
2019-05-15T01:53:48.083Z,0.00
2019-05-15T01:54:46.056Z,0.00
2019-05-15T01:55:48.185Z,0.00
2019-05-15T01:56:45.873Z,0.00
2019-05-15T01:57:45.897Z,0.00
2019-05-15T01:58:45.716Z,0.00
2019-05-15T01:59:56.535Z,0.00
2019-05-15T02:00:45.540Z,0.00
2019-05-15T02:01:45.490Z,0.00
2019-05-15T02:02:45.380Z,0.00
2019-05-15T02:03:45.391Z,0.00
2019-05-15T02:04:45.206Z,0.00
2019-05-15T02:05:45.114Z,0.00
2019-05-15T02:06:45.099Z,0.00
2019-05-15T02:07:44.955Z,0.00
2019-05-15T02:08:44.859Z,0.00
2019-05-15T02:09:44.814Z,0.00
2019-05-15T02:10:44.696Z,0.00
2019-05-15T02:11:44.623Z,0.00
2019-05-15T02:12:44.534Z,0.00
2019-05-15T02:13:44.535Z,0.00
2019-05-15T02:14:44.350Z,0.00
2019-05-15T02:15:44.263Z,0.00
2019-05-15T02:16:48.201Z,0.00
2019-05-15T02:17:44.110Z,0.00
2019-05-15T02:18:44.009Z,0.00
2019-05-15T02:19:43.962Z,0.00
2019-05-15T02:20:43.843Z,0.00
2019-05-15T02:21:43.756Z,0.00
2019-05-15T02:22:43.714Z,0.00
2019-05-15T02:23:43.589Z,0.00
2019-05-15T02:24:43.503Z,0.00
2019-05-15T02:25:43.491Z,0.00
2019-05-15T02:26:43.334Z,0.00
2019-05-15T02:27:43.282Z,0.00
2019-05-15T02:28:43.204Z,0.00
2019-05-15T02:29:43.076Z,0.00
2019-05-15T02:30:42.988Z,0.00
2019-05-15T02:31:42.929Z,0.00
2019-05-15T02:32:42.817Z,0.00
2019-05-15T02:33:42.870Z,0.00
2019-05-15T02:34:42.653Z,0.00
2019-05-15T02:35:42.641Z,0.00
2019-05-15T02:36:42.482Z,0.00
2019-05-15T02:37:42.450Z,0.00
2019-05-15T02:38:42.325Z,0.00
2019-05-15T02:39:58.932Z,0.00
2019-05-15T02:40:42.138Z,0.00
2019-05-15T02:41:42.066Z,0.00
2019-05-15T02:42:41.969Z,0.00
2019-05-15T02:43:42.010Z,0.00
2019-05-15T02:44:41.804Z,0.00
2019-05-15T02:45:42.551Z,0.00
2019-05-15T02:46:41.697Z,0.00
2019-05-15T02:47:41.549Z,0.00
2019-05-15T02:48:41.480Z,0.00
2019-05-15T02:49:41.410Z,0.00
2019-05-15T02:50:41.297Z,0.00
2019-05-15T02:51:41.326Z,0.00
2019-05-15T02:52:45.121Z,0.00
2019-05-15T02:53:41.163Z,0.00
2019-05-15T02:54:40.986Z,0.00
2019-05-15T02:55:40.870Z,0.00
2019-05-15T02:56:40.843Z,0.00
2019-05-15T02:57:40.699Z,0.00
2019-05-15T02:58:40.632Z,0.00
2019-05-15T02:59:40.555Z,0.00
2019-05-15T03:00:47.341Z,4.00
2019-05-15T03:01:40.779Z,4.00
2019-05-15T03:02:41.437Z,0.00
2019-05-15T03:03:40.305Z,4.00
2019-05-15T03:04:40.348Z,4.00
2019-05-15T03:05:40.972Z,8.00
2019-05-15T03:06:39.993Z,4.00
2019-05-15T03:07:40.685Z,8.00
2019-05-15T03:08:40.305Z,8.00
2019-05-15T03:09:40.046Z,8.00
2019-05-15T03:10:40.803Z,8.00
2019-05-15T03:11:40.820Z,8.00
2019-05-15T03:12:40.596Z,12.00
2019-05-15T03:13:39.618Z,12.00
2019-05-15T03:14:40.059Z,16.00
2019-05-15T03:15:40.260Z,20.00
2019-05-15T03:16:39.551Z,20.00
2019-05-15T03:17:40.326Z,24.00
2019-05-15T03:18:39.662Z,28.00
2019-05-15T03:19:39.469Z,28.00
2019-05-15T03:20:39.156Z,36.00
2019-05-15T03:21:39.684Z,40.00
2019-05-15T03:22:40.100Z,48.00
2019-05-15T03:23:40.337Z,56.00
2019-05-15T03:24:39.597Z,60.00
2019-05-15T03:25:40.234Z,72.00
2019-05-15T03:26:39.456Z,80.00
2019-05-15T03:27:39.589Z,88.00
2019-05-15T03:28:39.318Z,100.00
2019-05-15T03:29:40.373Z,116.00
2019-05-15T03:31:06.504Z,128.00
2019-05-15T03:31:53.333Z,144.00
2019-05-15T03:32:50.758Z,160.00
2019-05-15T03:33:44.897Z,180.00
2019-05-15T03:34:46.192Z,200.00
2019-05-15T03:35:43.178Z,220.00
2019-05-15T03:36:37.374Z,244.00
2019-05-15T03:37:39.820Z,268.00
2019-05-15T03:38:39.322Z,296.00
2019-05-15T03:39:39.239Z,324.00
2019-05-15T03:40:39.746Z,356.00
2019-05-15T03:41:39.318Z,388.00
2019-05-15T03:42:39.486Z,420.00
2019-05-15T03:43:39.333Z,456.00
2019-05-15T03:44:39.241Z,496.00
2019-05-15T03:45:39.981Z,536.00
2019-05-15T03:46:39.611Z,576.00
2019-05-15T03:47:39.721Z,620.00
2019-05-15T03:48:39.781Z,664.00
2019-05-15T03:49:39.447Z,708.00
2019-05-15T03:50:39.670Z,756.00
2019-05-15T03:51:39.919Z,804.00
2019-05-15T03:52:39.062Z,856.00
2019-05-15T03:53:39.545Z,912.00
2019-05-15T03:54:38.954Z,964.00
2019-05-15T03:55:35.835Z,1020.00
2019-05-15T03:56:39.034Z,1076.00
2019-05-15T03:57:35.580Z,1132.00
2019-05-15T03:58:35.577Z,1192.00
2019-05-15T03:59:35.410Z,1248.00
2019-05-15T04:00:35.325Z,1312.00
2019-05-15T04:01:42.348Z,1372.00
2019-05-15T04:02:35.156Z,1436.00
2019-05-15T04:03:35.081Z,1496.00
2019-05-15T04:04:34.980Z,1560.00
2019-05-15T04:05:34.970Z,1620.00
2019-05-15T04:06:34.816Z,1684.00
2019-05-15T04:07:43.796Z,1748.00
2019-05-15T04:08:34.653Z,1812.00
2019-05-15T04:09:34.593Z,1876.00
2019-05-15T04:10:34.480Z,1936.00
2019-05-15T04:11:34.395Z,2000.00
2019-05-15T04:12:34.303Z,2064.00
2019-05-15T04:13:35.264Z,2128.00
2019-05-15T04:14:34.130Z,2192.00
2019-05-15T04:15:34.049Z,2256.00
2019-05-15T04:16:33.963Z,2320.00
2019-05-15T04:17:33.927Z,2384.00
2019-05-15T04:18:33.786Z,2452.00
2019-05-15T04:19:39.199Z,2520.00
2019-05-15T04:20:33.628Z,2588.00
2019-05-15T04:21:33.648Z,2656.00
2019-05-15T04:22:33.448Z,2728.00
2019-05-15T04:23:33.461Z,2792.00
2019-05-15T04:24:33.306Z,2856.00
2019-05-15T04:25:35.208Z,2924.00
2019-05-15T04:26:33.101Z,2984.00
2019-05-15T04:27:33.025Z,3048.00
2019-05-15T04:28:32.931Z,3112.00
2019-05-15T04:29:32.918Z,3204.00
2019-05-15T04:30:32.759Z,3608.00
2019-05-15T04:31:50.648Z,4144.00
2019-05-15T04:32:32.590Z,4344.00
2019-05-15T04:33:32.617Z,4468.00
2019-05-15T04:34:32.437Z,4608.00
2019-05-15T04:35:32.332Z,4768.00
2019-05-15T04:36:32.331Z,4940.00
2019-05-15T04:37:32.172Z,5108.00
2019-05-15T04:38:32.083Z,5276.00
2019-05-15T04:39:32.079Z,5488.00
2019-05-15T04:40:31.914Z,5728.00
2019-05-15T04:41:31.826Z,6008.00
2019-05-15T04:42:31.752Z,6380.00
2019-05-15T04:43:39.755Z,6732.00
2019-05-15T04:44:31.590Z,6916.00
2019-05-15T04:45:34.894Z,6288.00
2019-05-15T04:46:31.412Z,4908.00
2019-05-15T04:47:31.370Z,4352.00
2019-05-15T04:48:31.245Z,4324.00
2019-05-15T04:49:31.212Z,4376.00
2019-05-15T04:50:31.079Z,4424.00
2019-05-15T04:51:30.984Z,4476.00
2019-05-15T04:52:30.997Z,4600.00
2019-05-15T04:53:33.270Z,4552.00
2019-05-15T04:54:30.747Z,4628.00
2019-05-15T04:55:30.707Z,4704.00
2019-05-15T04:56:30.566Z,4780.00
2019-05-15T04:57:34.121Z,4872.00
2019-05-15T04:58:30.396Z,4952.00
2019-05-15T04:59:30.526Z,5124.00
2019-05-15T05:00:30.236Z,6280.00
2019-05-15T05:01:30.158Z,8028.00
2019-05-15T05:02:32.170Z,9052.00
2019-05-15T05:03:33.754Z,9256.00
2019-05-15T05:04:29.904Z,9504.00
2019-05-15T05:05:29.956Z,9576.00
2019-05-15T05:06:29.722Z,9688.00
2019-05-15T05:07:29.739Z,9896.00
2019-05-15T05:08:29.560Z,10184.00
2019-05-15T05:09:29.608Z,10444.00
2019-05-15T05:10:29.387Z,10688.00
2019-05-15T05:11:29.375Z,10896.00
2019-05-15T05:12:31.235Z,10956.00
2019-05-15T05:13:29.142Z,11116.00
2019-05-15T05:14:29.058Z,11288.00
2019-05-15T05:15:29.336Z,11644.00
2019-05-15T05:16:29.517Z,11892.00
2019-05-15T05:17:29.023Z,12332.00
2019-05-15T05:18:29.851Z,12692.00
2019-05-15T05:19:28.745Z,12708.00
2019-05-15T05:20:28.866Z,12976.00
2019-05-15T05:21:28.531Z,13264.00
2019-05-15T05:22:28.392Z,13444.00
2019-05-15T05:23:28.493Z,13588.00
2019-05-15T05:24:28.232Z,13336.00
2019-05-15T05:25:28.289Z,13136.00
2019-05-15T05:26:29.358Z,13916.00
2019-05-15T05:27:28.861Z,14380.00
2019-05-15T05:28:28.898Z,14428.00
2019-05-15T05:29:28.106Z,14504.00
2019-05-15T05:30:29.293Z,15008.00
2019-05-15T05:31:33.173Z,15264.00
2019-05-15T05:32:34.633Z,16192.00
2019-05-15T05:33:28.673Z,16704.00
2019-05-15T05:34:28.349Z,16768.00
2019-05-15T05:35:27.919Z,17120.00
2019-05-15T05:36:27.928Z,17632.00
2019-05-15T05:37:27.978Z,17280.00
2019-05-15T05:38:28.191Z,17440.00
2019-05-15T05:39:29.250Z,18080.00
2019-05-15T05:40:29.137Z,18528.00
2019-05-15T05:41:28.086Z,19392.00
2019-05-15T05:42:29.017Z,20064.00
2019-05-15T05:43:26.673Z,20576.00
2019-05-15T05:44:28.944Z,20288.00
2019-05-15T05:45:28.716Z,21024.00
2019-05-15T05:46:28.047Z,21408.00
2019-05-15T05:47:28.723Z,21152.00
2019-05-15T05:48:26.278Z,21088.00
2019-05-15T05:49:26.185Z,21344.00
2019-05-15T05:50:28.713Z,21824.00
2019-05-15T05:51:28.080Z,22112.00
2019-05-15T05:52:27.938Z,22432.00
2019-05-15T05:53:25.872Z,22496.00
2019-05-15T05:54:25.786Z,22752.00
2019-05-15T05:55:25.722Z,23808.00
2019-05-15T05:56:25.625Z,23936.00
2019-05-15T05:57:27.839Z,23360.00
2019-05-15T05:58:25.463Z,23104.00
2019-05-15T05:59:25.384Z,23680.00
2019-05-15T06:00:25.320Z,24800.00
2019-05-15T06:01:25.271Z,25088.00
2019-05-15T06:02:25.141Z,24416.00
2019-05-15T06:03:25.062Z,24928.00
2019-05-15T06:04:24.980Z,26720.00
2019-05-15T06:05:24.912Z,27584.00
2019-05-15T06:06:24.828Z,27168.00
2019-05-15T06:07:24.735Z,27904.00
2019-05-15T06:08:24.654Z,28544.00
2019-05-15T06:09:24.598Z,28768.00
2019-05-15T06:10:24.512Z,29472.00
2019-05-15T06:11:24.416Z,30208.00
2019-05-15T06:12:24.354Z,30304.00
2019-05-15T06:13:24.255Z,30624.00
2019-05-15T06:14:24.183Z,30560.00
2019-05-15T06:15:24.115Z,30560.00
2019-05-15T06:16:24.030Z,30016.00
2019-05-15T06:17:23.955Z,28960.00
2019-05-15T06:18:23.871Z,31168.00
2019-05-15T06:19:23.790Z,32640.00
2019-05-15T06:20:23.701Z,32800.00
2019-05-15T06:21:23.640Z,33152.00
2019-05-15T06:22:23.543Z,32992.00
2019-05-15T06:23:25.921Z,32640.00
2019-05-15T06:24:23.377Z,32224.00
2019-05-15T06:25:23.305Z,32928.00
2019-05-15T06:26:23.237Z,34112.00
2019-05-15T06:27:23.140Z,33824.00
2019-05-15T06:28:23.063Z,36064.00
2019-05-15T06:29:22.981Z,37600.00
2019-05-15T06:30:27.431Z,36256.00
2019-05-15T06:31:22.845Z,36672.00
2019-05-15T06:32:22.743Z,36256.00
2019-05-15T06:33:22.664Z,34304.00
2019-05-15T06:34:22.588Z,33312.00
2019-05-15T06:35:22.507Z,36576.00
2019-05-15T06:36:22.457Z,38944.00
2019-05-15T06:37:22.350Z,38144.00
2019-05-15T06:38:22.276Z,39776.00
2019-05-15T06:39:22.195Z,42848.00
2019-05-15T06:40:22.105Z,42464.00
2019-05-15T06:41:22.039Z,42336.00
2019-05-15T06:42:21.952Z,44544.00
2019-05-15T06:43:21.868Z,44704.00
2019-05-15T06:44:21.788Z,44736.00
2019-05-15T06:45:21.708Z,44160.00
2019-05-15T06:46:21.656Z,46592.00
2019-05-15T06:47:21.547Z,47808.00
2019-05-15T06:48:21.473Z,46496.00
2019-05-15T06:49:21.391Z,47008.00
2019-05-15T06:50:21.312Z,47552.00
2019-05-15T06:51:21.266Z,47360.00
2019-05-15T06:52:21.158Z,49280.00
2019-05-15T06:53:21.079Z,50528.00
2019-05-15T06:54:21.000Z,50272.00
2019-05-15T06:55:20.918Z,51552.00
2019-05-15T06:56:20.847Z,51776.00
2019-05-15T06:57:20.761Z,50784.00
2019-05-15T06:58:20.682Z,52576.00
2019-05-15T06:59:20.601Z,53536.00
2019-05-15T07:00:20.520Z,52864.00
2019-05-15T07:01:20.756Z,51872.00
2019-05-15T07:02:20.359Z,51520.00
2019-05-15T07:03:25.517Z,52320.00
2019-05-15T07:04:20.204Z,52864.00
2019-05-15T07:05:20.145Z,53280.00
2019-05-15T07:06:20.059Z,54048.00
2019-05-15T07:07:19.976Z,54400.00
2019-05-15T07:08:19.907Z,53376.00
2019-05-15T07:09:19.814Z,54400.00
2019-05-15T07:10:19.756Z,56960.00
2019-05-15T07:11:19.671Z,56096.00
2019-05-15T07:12:19.574Z,54880.00
2019-05-15T07:13:19.516Z,56512.00
2019-05-15T07:14:19.421Z,57152.00
2019-05-15T07:15:19.342Z,55488.00
2019-05-15T07:16:19.269Z,56288.00
2019-05-15T07:17:19.181Z,56704.00
2019-05-15T07:18:19.888Z,56128.00
2019-05-15T07:19:19.265Z,57664.00
2019-05-15T07:20:18.936Z,59872.00
2019-05-15T07:21:20.543Z,59520.00
2019-05-15T07:22:18.781Z,55360.00
2019-05-15T07:23:19.070Z,55072.00
2019-05-15T07:24:18.639Z,59872.00
2019-05-15T07:25:18.973Z,63168.00
2019-05-15T07:26:18.482Z,63520.00
2019-05-15T07:27:18.554Z,61984.00
2019-05-15T07:28:18.505Z,61280.00
2019-05-15T07:29:18.949Z,62944.00
2019-05-15T07:30:18.744Z,62976.00
2019-05-15T07:31:18.203Z,60960.00
2019-05-15T07:32:19.265Z,60864.00
2019-05-15T07:33:27.957Z,63168.00
2019-05-15T07:34:18.783Z,64768.00
2019-05-15T07:35:19.180Z,64768.00
2019-05-15T07:36:19.225Z,64416.00
2019-05-15T07:37:19.113Z,63296.00
2019-05-15T07:38:18.275Z,63232.00
2019-05-15T07:39:17.985Z,65696.00
2019-05-15T07:40:19.414Z,66592.00
2019-05-15T07:41:18.445Z,66240.00
2019-05-15T07:42:18.451Z,66720.00
2019-05-15T07:43:18.217Z,66592.00
2019-05-15T07:44:18.897Z,66880.00
2019-05-15T07:45:19.756Z,67872.00
2019-05-15T07:46:18.444Z,66432.00
2019-05-15T07:47:19.079Z,66816.00
2019-05-15T07:48:18.733Z,67840.00
2019-05-15T07:49:18.188Z,67744.00
2019-05-15T07:50:16.599Z,69184.00
2019-05-15T07:51:18.022Z,70336.00
2019-05-15T07:52:19.179Z,69728.00
2019-05-15T07:53:16.365Z,71456.00
2019-05-15T07:54:18.210Z,71808.00
2019-05-15T07:55:18.332Z,72064.00
2019-05-15T07:56:18.053Z,72640.00
2019-05-15T07:57:19.053Z,71360.00
2019-05-15T07:58:15.980Z,71872.00
2019-05-15T07:59:15.897Z,71488.00
2019-05-15T08:00:18.546Z,72896.00
2019-05-15T08:01:18.363Z,72640.00
2019-05-15T08:02:15.679Z,72416.00
2019-05-15T08:03:15.589Z,72320.00
2019-05-15T08:04:26.201Z,72832.00
2019-05-15T08:05:18.074Z,75232.00
2019-05-15T08:06:17.843Z,76160.00
2019-05-15T08:07:15.309Z,76480.00
2019-05-15T08:08:15.209Z,76192.00
2019-05-15T08:09:15.132Z,76384.00
2019-05-15T08:10:15.066Z,75808.00
2019-05-15T08:11:20.910Z,73312.00
2019-05-15T08:12:14.918Z,69184.00
2019-05-15T08:13:14.841Z,70880.00
2019-05-15T08:14:14.753Z,77600.00
2019-05-15T08:15:14.673Z,79328.00
2019-05-15T08:16:14.617Z,77856.00
2019-05-15T08:17:18.179Z,80640.00
2019-05-15T08:18:14.462Z,83168.00
2019-05-15T08:19:14.371Z,81568.00
2019-05-15T08:20:14.314Z,81600.00
2019-05-15T08:21:14.221Z,82528.00
2019-05-15T08:22:15.212Z,83552.00
2019-05-15T08:23:14.076Z,84064.00
2019-05-15T08:24:13.999Z,82912.00
2019-05-15T08:25:28.254Z,80256.00
2019-05-15T08:26:13.860Z,82368.00
2019-05-15T08:27:13.788Z,84448.00
2019-05-15T08:28:13.697Z,86176.00
2019-05-15T08:29:13.620Z,86944.00
2019-05-15T08:30:13.548Z,87136.00
2019-05-15T08:31:13.490Z,87424.00
2019-05-15T08:32:13.407Z,87040.00
2019-05-15T08:33:13.339Z,87872.00
2019-05-15T08:34:16.296Z,88192.00
2019-05-15T08:35:13.167Z,86816.00
2019-05-15T08:36:13.096Z,88096.00
2019-05-15T08:37:13.029Z,89856.00
2019-05-15T08:38:14.297Z,89120.00
2019-05-15T08:39:12.868Z,87648.00
2019-05-15T08:40:12.788Z,87552.00
2019-05-15T08:41:15.518Z,87840.00
2019-05-15T08:42:12.673Z,88640.00
2019-05-15T08:43:12.562Z,89568.00
2019-05-15T08:44:12.503Z,91008.00
2019-05-15T08:45:12.415Z,93120.00
2019-05-15T08:46:12.349Z,91072.00
2019-05-15T08:47:12.268Z,89088.00
2019-05-15T08:48:12.231Z,89984.00
2019-05-15T08:49:12.116Z,90176.00
2019-05-15T08:50:12.059Z,91392.00
2019-05-15T08:51:11.960Z,88320.00
2019-05-15T08:52:11.896Z,89632.00
2019-05-15T08:53:11.835Z,89248.00
2019-05-15T08:54:11.740Z,92288.00
2019-05-15T08:55:11.663Z,92096.00
2019-05-15T08:56:14.703Z,89568.00
2019-05-15T08:57:11.520Z,88864.00
2019-05-15T08:58:14.051Z,91264.00
2019-05-15T08:59:11.379Z,93920.00
2019-05-15T09:00:11.298Z,93984.00
2019-05-15T09:01:11.235Z,95232.00
2019-05-15T09:02:11.153Z,95808.00
2019-05-15T09:03:11.087Z,97152.00
2019-05-15T09:04:26.116Z,96576.00
2019-05-15T09:05:10.929Z,98080.00
2019-05-15T09:06:10.853Z,96064.00
2019-05-15T09:07:10.867Z,95296.00
2019-05-15T09:08:10.723Z,93344.00
2019-05-15T09:09:10.637Z,93792.00
2019-05-15T09:10:10.560Z,93696.00
2019-05-15T09:11:10.497Z,94272.00
2019-05-15T09:12:10.408Z,95200.00
2019-05-15T09:13:10.363Z,94944.00
2019-05-15T09:14:10.313Z,94560.00
2019-05-15T09:15:10.195Z,93408.00
2019-05-15T09:16:10.122Z,94656.00
2019-05-15T09:17:10.051Z,98080.00
2019-05-15T09:18:15.945Z,97600.00
2019-05-15T09:19:09.915Z,96000.00
2019-05-15T09:20:09.825Z,95296.00
2019-05-15T09:21:09.752Z,97472.00
2019-05-15T09:22:09.683Z,99520.00
2019-05-15T09:23:09.617Z,97920.00
2019-05-15T09:24:09.714Z,97696.00
2019-05-15T09:25:09.474Z,95488.00
2019-05-15T09:26:09.489Z,95840.00
2019-05-15T09:27:10.264Z,96128.00
2019-05-15T09:28:09.264Z,95648.00
2019-05-15T09:29:09.447Z,95712.00
2019-05-15T09:30:09.097Z,94112.00
2019-05-15T09:31:09.014Z,94560.00
2019-05-15T09:32:12.430Z,92192.00
2019-05-15T09:33:08.928Z,95552.00
2019-05-15T09:34:09.229Z,98208.00
2019-05-15T09:35:08.733Z,97920.00
2019-05-15T09:36:09.155Z,99040.00
2019-05-15T09:37:08.696Z,99232.00
2019-05-15T09:38:08.736Z,100608.00
2019-05-15T09:39:08.769Z,102176.00
2019-05-15T09:40:09.065Z,100096.00
2019-05-15T09:41:08.982Z,102976.00
2019-05-15T09:42:08.524Z,103456.00
2019-05-15T09:43:10.797Z,105376.00
2019-05-15T09:44:08.126Z,110400.00
2019-05-15T09:45:08.925Z,109408.00
2019-05-15T09:46:10.283Z,110592.00
2019-05-15T09:47:09.121Z,110144.00
2019-05-15T09:48:09.766Z,107136.00
2019-05-15T09:49:08.838Z,110656.00
2019-05-15T09:50:08.507Z,110560.00
2019-05-15T09:51:09.271Z,112288.00
2019-05-15T09:52:09.011Z,107296.00
2019-05-15T09:53:09.304Z,94400.00
2019-05-15T09:54:08.070Z,93760.00
2019-05-15T09:55:08.612Z,93440.00
2019-05-15T09:56:08.135Z,100224.00
2019-05-15T09:57:10.592Z,109216.00
2019-05-15T09:58:08.291Z,110688.00
2019-05-15T09:59:08.900Z,112512.00
2019-05-15T10:00:09.009Z,112544.00
2019-05-15T10:01:08.426Z,110368.00
2019-05-15T10:02:09.087Z,110048.00
2019-05-15T10:03:09.344Z,107392.00
2019-05-15T10:04:08.359Z,108288.00
2019-05-15T10:05:10.983Z,108672.00
2019-05-15T10:06:08.135Z,110592.00
2019-05-15T10:07:08.199Z,109088.00
2019-05-15T10:08:08.514Z,109120.00
2019-05-15T10:09:08.841Z,106944.00
2019-05-15T10:10:08.511Z,105728.00
2019-05-15T10:11:08.850Z,106464.00
2019-05-15T10:12:08.351Z,105760.00
2019-05-15T10:13:06.000Z,106176.00
2019-05-15T10:14:05.922Z,106656.00
2019-05-15T10:15:10.485Z,109376.00
2019-05-15T10:16:08.222Z,106080.00
2019-05-15T10:17:05.705Z,106720.00
2019-05-15T10:18:05.653Z,106528.00
2019-05-15T10:19:05.564Z,107392.00
2019-05-15T10:20:05.500Z,110624.00
2019-05-15T10:21:05.416Z,110912.00
2019-05-15T10:22:05.365Z,111776.00
2019-05-15T10:23:05.275Z,110432.00
2019-05-15T10:24:05.204Z,108288.00
2019-05-15T10:25:05.141Z,106144.00
2019-05-15T10:26:05.071Z,105632.00
2019-05-15T10:27:04.981Z,106784.00
2019-05-15T10:28:04.898Z,109568.00
2019-05-15T10:29:04.846Z,109888.00
2019-05-15T10:30:04.765Z,111040.00
2019-05-15T10:31:04.686Z,107904.00
2019-05-15T10:32:04.608Z,106688.00
2019-05-15T10:33:04.644Z,110144.00
2019-05-15T10:34:04.479Z,111904.00
2019-05-15T10:35:04.397Z,116448.00
2019-05-15T10:36:04.318Z,117216.00
2019-05-15T10:37:04.255Z,118368.00
2019-05-15T10:38:04.178Z,119104.00
2019-05-15T10:39:04.165Z,120416.00
2019-05-15T10:40:04.032Z,119488.00
2019-05-15T10:41:09.801Z,121024.00
2019-05-15T10:42:04.207Z,117728.00
2019-05-15T10:43:03.817Z,115520.00
2019-05-15T10:44:03.761Z,115648.00
2019-05-15T10:45:03.667Z,117184.00
2019-05-15T10:46:03.598Z,113952.00
2019-05-15T10:47:03.547Z,115296.00
2019-05-15T10:48:03.469Z,116896.00
2019-05-15T10:49:03.410Z,114976.00
2019-05-15T10:50:03.308Z,118112.00
2019-05-15T10:51:07.252Z,116896.00
2019-05-15T10:52:03.178Z,117248.00
2019-05-15T10:53:03.098Z,116480.00
2019-05-15T10:54:03.031Z,119008.00
2019-05-15T10:55:02.949Z,120000.00
2019-05-15T10:56:02.912Z,121056.00
2019-05-15T10:57:05.236Z,120416.00
2019-05-15T10:58:02.728Z,120864.00
2019-05-15T10:59:02.672Z,119584.00
2019-05-15T11:00:02.582Z,119168.00
2019-05-15T11:01:03.406Z,117760.00
2019-05-15T11:02:02.437Z,117216.00
2019-05-15T11:03:02.368Z,117856.00
2019-05-15T11:04:02.309Z,118784.00
2019-05-15T11:05:02.235Z,122976.00
2019-05-15T11:06:02.143Z,123648.00
2019-05-15T11:07:02.084Z,124224.00
2019-05-15T11:08:01.998Z,124864.00
2019-05-15T11:09:01.945Z,124480.00
2019-05-15T11:10:01.860Z,128416.00
2019-05-15T11:11:01.780Z,128512.00
2019-05-15T11:12:01.715Z,130176.00
2019-05-15T11:13:01.648Z,128320.00
2019-05-15T11:14:01.578Z,131328.00
2019-05-15T11:15:01.501Z,134752.00
2019-05-15T11:16:01.432Z,136160.00
2019-05-15T11:17:01.353Z,135904.00
2019-05-15T11:18:01.281Z,138592.00
2019-05-15T11:19:01.240Z,123552.00
2019-05-15T11:20:01.129Z,112928.00
2019-05-15T11:21:01.068Z,116256.00
2019-05-15T11:22:00.987Z,113312.00
2019-05-15T11:23:00.911Z,120768.00
2019-05-15T11:24:00.856Z,132384.00
2019-05-15T11:25:00.771Z,126752.00
2019-05-15T11:26:00.694Z,131264.00
2019-05-15T11:27:00.702Z,131584.00
2019-05-15T11:28:00.558Z,135360.00
2019-05-15T11:29:00.498Z,142368.00
2019-05-15T11:30:00.414Z,142336.00
2019-05-15T11:31:00.348Z,141760.00
2019-05-15T11:32:00.269Z,139104.00
2019-05-15T11:33:00.191Z,144704.00
2019-05-15T11:34:00.139Z,155616.00
2019-05-15T11:35:03.630Z,173728.00
2019-05-15T11:36:05.581Z,174048.00
2019-05-15T11:36:59.908Z,164384.00
2019-05-15T11:37:59.842Z,151648.00
2019-05-15T11:38:59.784Z,142976.00
2019-05-15T11:39:59.697Z,143776.00
2019-05-15T11:40:59.616Z,142752.00
2019-05-15T11:41:59.554Z,137792.00
2019-05-15T11:42:59.478Z,134848.00
2019-05-15T11:43:59.421Z,132480.00
2019-05-15T11:44:59.334Z,128736.00
2019-05-15T11:45:59.273Z,134784.00
2019-05-15T11:46:59.195Z,139872.00
2019-05-15T11:48:00.982Z,142496.00
2019-05-15T11:48:59.178Z,149216.00
2019-05-15T11:49:58.990Z,148224.00
2019-05-15T11:50:58.897Z,152224.00
2019-05-15T11:52:00.646Z,158720.00
2019-05-15T11:52:58.760Z,160512.00
2019-05-15T11:53:58.907Z,163680.00
2019-05-15T11:54:59.002Z,167232.00
2019-05-15T11:55:59.858Z,152704.00
2019-05-15T11:56:59.633Z,147392.00
2019-05-15T11:57:59.432Z,142336.00
2019-05-15T11:58:58.322Z,133760.00
2019-05-15T11:59:59.580Z,138816.00
2019-05-15T12:00:58.186Z,136032.00
2019-05-15T12:01:58.156Z,140448.00
2019-05-15T12:02:58.558Z,132128.00
2019-05-15T12:03:58.545Z,131744.00
2019-05-15T12:04:58.405Z,131264.00
2019-05-15T12:05:59.660Z,134080.00
2019-05-15T12:07:02.141Z,137184.00